Ontonagon, Michigan
Current Conditions -  °F | °C
As of 11:53 PM on Tuesday 25 Nov 2014 (Local Time) from KCMX Reporting Station
Overcast Overcast  
Wind Chill: -12°   Ceiling: 2500
Heat Index: -8°   Visibility: 10mi
Dew Point: -12°   Wind: 5mph
Humidity: 74%   Direction: 210°SSW
Pressure: 30.06"   Gusts: NA
Location:  46.87°N, 89.31°W
Report Text: KCMX 260453Z AUTO 21004KT 10SM OVC025 M08/M12 A3006 RMK AO2 SLP201 T10831122 410561089 $
Loading
Personal Weather Stations






























Interactive Weather Map New forecast layout! Learn more

10-Day Weather Forecast

Advertisements
Track Severe Weather on mobile